Lovell Field
KCHA : now visible

Airfield :











YOU CAN JOIN US ON...

 
LOGIN :

Register | Disclaimer

   EN    FR    IT 

 









Legend :    VFR   Marginal VFR   IFR   Intensive IFR   Very Intensive IFR
Visi :
Ceiling :
>= 8 km
>= 3000ft
5 to 8 km
1000 to 3000 ft
1500m to 5 km
500 to 1000 ft
800 to 1500m
200 to 500 ft
< 800m
< 200 ft
Symbols :   Thunderstorms  Fog  Heavy snow  Heavy precipitations  Wind > 20 kt






- Airport Elevation : 683 ft
- IATA code : CHA


KCHA - Lovell Field

CURRENT METAR :
  • 230853Z AUTO 00000KT 10SM CLR 20/18 A2999 RMK AO2 SLP147 T02000178 56014

EXPIRED METARs :
  • 230753Z AUTO 06003KT 10SM CLR 21/18 A3001 RMK AO2 SLP154 T02060183
  • 230653Z AUTO 31004KT 10SM CLR 20/18 A3001 RMK AO2 SLP153 T02000178
  • 230553Z AUTO 03003KT 10SM CLR 21/18 A3003 RMK AO2 SLP161 T02110178 10283 20206 51007
  • 230453Z AUTO 00000KT 10SM CLR 22/18 A3003 RMK AO2 SLP161 T02170178 403110200

TAF KCHA
Valid from the 23 at 06:00 until the 24 at 06:00 UTC


230542Z 2306/2406 00000KT P6SM BKN250
FM231800 VRB04KT P6SM -SHRA VCTS SCT035CB OVC100
PROB30 2319/2323 4SM TSRA BR OVC025CB
FM240000 VRB04KT P6SM OVC050
KZTL FIR / North America



MET'MAP, your aeronautical weather chart ! - Copyright ORBIFLY December 2007 - Disclaimer

ORBIFLY MET'MAP TEAM :

Programming & Development : Alexandra Zaïnal
Original concept : Baudouin d'Aumeries
Technical & hardware support : Manuel Goepfert
Assistance : Marc-Olivier Méhu




SOURCES & CREDITS :

   NOAA       Earth
Advisory